Time;durP1;ratioP1;P1;durP2;ratioP2;P2;SDS_P1;SDS_P2;PMS_P1;PMS_P2;Temp;Humidity;BMP_temperature;BMP_pressure;BME280_temperature;BME280_humidity;BME280_pressure;Samples;Min_cycle;Max_cycle;Signal;HPM_P1;HPM_P2
2022/12/03 00:01:13;;;;;;;14.10;5.97;;;3.80;78.10;;;;;;4155273;28;20033;-87
2022/12/03 00:03:35;;;;;;;10.02;5.50;;;3.90;78.00;;;;;;4141164;28;20029;-85
2022/12/03 00:05:56;;;;;;;12.38;5.20;;;3.90;77.70;;;;;;4129927;28;20577;-86
2022/12/03 00:08:16;;;;;;;14.75;5.78;;;3.90;77.50;;;;;;4153857;28;20032;-86
2022/12/03 00:10:37;;;;;;;11.25;5.00;;;3.80;77.60;;;;;;4137899;28;20037;-86
2022/12/03 00:12:57;;;;;;;10.68;5.05;;;3.80;77.60;;;;;;4150667;28;20030;-86
2022/12/03 00:15:18;;;;;;;12.05;5.03;;;3.80;77.70;;;;;;4151606;28;20030;-85
2022/12/03 00:17:39;;;;;;;13.20;5.07;;;3.90;77.60;;;;;;4135178;28;20034;-84
2022/12/03 00:19:59;;;;;;;9.48;4.35;;;3.70;76.70;;;;;;4134580;28;20037;-86
2022/12/03 00:22:20;;;;;;;9.02;4.40;;;3.70;76.50;;;;;;4138039;28;20037;-85
2022/12/03 00:24:41;;;;;;;14.65;3.85;;;3.80;76.20;;;;;;4137328;28;20029;-85
2022/12/03 00:26:41;;;;;;;9.77;3.72;;;3.70;75.70;;;;;;4131455;28;20037;-86
2022/12/03 00:28:42;;;;;;;8.27;3.97;;;3.60;75.40;;;;;;4150292;28;20093;-86
2022/12/03 00:31:03;;;;;;;12.32;3.50;;;3.60;75.00;;;;;;4137928;28;20072;-86
2022/12/03 00:33:24;;;;;;;14.32;4.30;;;3.60;74.70;;;;;;4149242;28;20045;-86
2022/12/03 00:35:44;;;;;;;6.55;3.38;;;3.60;74.40;;;;;;4141034;28;20128;-85
2022/12/03 00:37:45;;;;;;;9.35;3.78;;;3.50;74.20;;;;;;4132679;28;20077;-86
2022/12/03 00:39:46;;;;;;;9.93;4.03;;;3.50;74.50;;;;;;4134714;28;20030;-85
2022/12/03 00:41:46;;;;;;;8.60;4.20;;;3.50;74.60;;;;;;4141748;28;20064;-85
2022/12/03 00:43:47;;;;;;;11.80;4.60;;;3.50;75.50;;;;;;4135933;28;20041;-86
2022/12/03 00:45:48;;;;;;;7.93;4.40;;;3.50;75.00;;;;;;4150054;28;20061;-87
2022/12/03 00:47:48;;;;;;;17.33;4.07;;;3.70;74.60;;;;;;4149101;28;20405;-87
2022/12/03 00:49:49;;;;;;;6.47;3.08;;;3.60;73.90;;;;;;4116374;28;20030;-87
2022/12/03 00:51:50;;;;;;;9.98;3.50;;;3.60;73.80;;;;;;4136236;28;20038;-86
2022/12/03 00:53:50;;;;;;;7.93;2.97;;;3.60;72.90;;;;;;4130950;28;20034;-87
2022/12/03 00:55:54;;;;;;;9.32;3.78;;;3.50;71.90;;;;;;4134167;28;20034;-87
2022/12/03 00:57:54;;;;;;;9.45;3.90;;;3.40;71.90;;;;;;4136627;28;20041;-87
2022/12/03 01:00:15;;;;;;;9.50;3.38;;;3.50;72.10;;;;;;4148654;28;20033;-87
2022/12/03 01:02:16;;;;;;;7.18;3.63;;;3.40;72.20;;;;;;4152228;28;20501;-87
2022/12/03 01:04:37;;;;;;;5.57;2.85;;;3.50;72.20;;;;;;4141703;28;20045;-86
2022/12/03 01:06:57;;;;;;;6.70;3.20;;;3.40;72.30;;;;;;4137726;28;20129;-86
2022/12/03 01:09:18;;;;;;;9.80;3.72;;;3.50;72.50;;;;;;4148046;28;20079;-86
2022/12/03 01:11:39;;;;;;;7.55;2.97;;;3.50;72.60;;;;;;4117180;28;20533;-85
2022/12/03 01:14:00;;;;;;;8.70;3.60;;;3.50;72.70;;;;;;4137187;28;20149;-85
2022/12/03 01:16:20;;;;;;;12.48;3.88;;;3.50;72.40;;;;;;4145266;28;20164;-87
2022/12/03 01:18:41;;;;;;;9.18;3.72;;;3.50;72.30;;;;;;4140682;28;20053;-85
2022/12/03 01:21:02;;;;;;;8.25;3.50;;;3.50;72.00;;;;;;4149463;28;20080;-86
2022/12/03 01:23:22;;;;;;;8.15;3.53;;;3.50;71.90;;;;;;4151790;28;20897;-85
2022/12/03 01:25:43;;;;;;;7.88;3.35;;;3.50;71.80;;;;;;4136975;28;20068;-86
2022/12/03 01:28:03;;;;;;;13.02;3.78;;;3.40;71.50;;;;;;4141690;28;20033;-85
2022/12/03 01:30:24;;;;;;;8.05;3.97;;;3.50;71.70;;;;;;4148395;28;20029;-86
2022/12/03 01:32:44;;;;;;;8.25;3.45;;;3.50;71.80;;;;;;4147725;28;20088;-85
2022/12/03 01:35:06;;;;;;;8.50;3.25;;;3.40;71.60;;;;;;4137457;28;20104;-86
2022/12/03 01:37:27;;;;;;;9.02;3.47;;;3.40;71.60;;;;;;4138007;28;20096;-86
2022/12/03 01:39:47;;;;;;;8.23;3.00;;;3.50;71.90;;;;;;4147240;28;20127;-85
2022/12/03 01:41:50;;;;;;;6.45;3.25;;;3.50;71.70;;;;;;4150763;28;20025;-86
2022/12/03 01:43:52;;;;;;;8.90;3.42;;;3.50;71.60;;;;;;4139495;28;20084;-86
2022/12/03 01:45:53;;;;;;;8.00;2.88;;;3.50;71.50;;;;;;4121434;28;20034;-86
2022/12/03 01:47:54;;;;;;;9.88;3.78;;;3.50;71.70;;;;;;4121830;28;20075;-85
2022/12/03 01:50:07;;;;;;;6.93;3.03;;;3.50;71.70;;;;;;4151287;28;20026;-86
2022/12/03 01:52:13;;;;;;;7.65;3.40;;;3.40;71.30;;;;;;4152386;28;20022;-85
2022/12/03 01:54:21;;;;;;;7.05;3.20;;;3.40;71.30;;;;;;4137651;28;20050;-86
2022/12/03 01:56:21;;;;;;;5.47;3.15;;;3.40;71.30;;;;;;4136889;28;20014;-85
2022/12/03 01:58:26;;;;;;;8.98;3.10;;;3.50;71.50;;;;;;4138537;28;20021;-86
2022/12/03 02:00:28;;;;;;;9.60;3.83;;;3.40;71.20;;;;;;4147760;28;20025;-86
2022/12/03 02:02:30;;;;;;;6.18;3.30;;;3.40;71.40;;;;;;4153222;28;20022;-85
2022/12/03 02:04:31;;;;;;;8.02;3.63;;;3.40;71.30;;;;;;4123521;28;20062;-86
2022/12/03 02:06:31;;;;;;;5.85;2.75;;;3.40;71.10;;;;;;4145136;28;20033;-86
2022/12/03 02:08:35;;;;;;;8.00;3.60;;;3.40;71.10;;;;;;4137298;28;20036;-86
2022/12/03 02:10:37;;;;;;;9.60;3.30;;;3.40;71.00;;;;;;4133979;28;20121;-86
2022/12/03 02:12:47;;;;;;;10.40;4.07;;;3.50;71.20;;;;;;4152125;28;20025;-85
2022/12/03 02:14:48;;;;;;;8.32;4.07;;;3.40;71.10;;;;;;4149865;28;20490;-86
2022/12/03 02:16:49;;;;;;;10.45;3.85;;;3.40;71.30;;;;;;4147645;28;20036;-85
2022/12/03 02:18:50;;;;;;;9.02;3.88;;;3.40;71.30;;;;;;4137425;28;20390;-86
2022/12/03 02:21:26;;;;;;;8.65;3.92;;;3.40;71.30;;;;;;4144013;28;20440;-86
2022/12/03 02:24:10;;;;;;;9.75;3.88;;;3.40;71.40;;;;;;4123533;28;20022;-86
2022/12/03 02:26:11;;;;;;;9.82;3.97;;;3.30;71.10;;;;;;4106371;28;20042;-86
2022/12/03 02:28:12;;;;;;;10.52;3.92;;;3.40;71.30;;;;;;4117982;28;20037;-85
2022/12/03 02:30:16;;;;;;;13.68;4.07;;;3.40;71.20;;;;;;4132427;28;20034;-85
2022/12/03 02:32:17;;;;;;;7.80;3.45;;;3.30;71.40;;;;;;4150628;28;20436;-86
2022/12/03 02:34:38;;;;;;;8.80;4.00;;;3.30;71.40;;;;;;4134545;28;20030;-85
2022/12/03 02:36:39;;;;;;;10.68;4.45;;;3.30;71.40;;;;;;4139113;28;20026;-86
2022/12/03 02:38:42;;;;;;;7.90;4.05;;;3.20;71.20;;;;;;4128724;28;20645;-86
2022/12/03 02:40:45;;;;;;;15.15;4.43;;;3.20;71.50;;;;;;4144579;28;20052;-86
2022/12/03 02:42:48;;;;;;;8.63;4.22;;;3.20;71.50;;;;;;4148614;28;20022;-86
2022/12/03 02:44:49;;;;;;;10.17;4.00;;;3.20;71.50;;;;;;4133776;28;20042;-85
2022/12/03 02:46:49;;;;;;;7.82;3.92;;;3.20;71.50;;;;;;4134921;28;20042;-86
2022/12/03 02:48:50;;;;;;;8.95;4.25;;;3.20;71.70;;;;;;4128915;28;20486;-85
2022/12/03 02:50:53;;;;;;;10.63;3.95;;;3.30;71.70;;;;;;4160457;28;20038;-85
2022/12/03 02:52:56;;;;;;;9.93;4.20;;;3.20;71.70;;;;;;4124244;28;20026;-85
2022/12/03 02:54:57;;;;;;;15.20;4.55;;;3.20;71.70;;;;;;4153523;28;20481;-85
2022/12/03 02:56:58;;;;;;;14.43;4.63;;;3.10;71.70;;;;;;4151543;28;20040;-86
2022/12/03 02:59:01;;;;;;;9.63;4.13;;;3.20;71.80;;;;;;4136931;28;20414;-86
2022/12/03 03:01:03;;;;;;;11.95;4.40;;;3.20;71.90;;;;;;4132236;28;20213;-86
2022/12/03 03:03:06;;;;;;;12.15;4.20;;;3.10;71.60;;;;;;4127609;28;20109;-85
2022/12/03 03:05:10;;;;;;;11.05;4.32;;;3.20;71.70;;;;;;4119165;28;20034;-85
2022/12/03 03:07:12;;;;;;;7.82;3.70;;;3.10;71.40;;;;;;4128413;28;20030;-85
2022/12/03 03:09:14;;;;;;;14.10;4.43;;;3.10;71.40;;;;;;4147216;28;20116;-86
2022/12/03 03:11:15;;;;;;;8.77;3.88;;;3.10;71.50;;;;;;4149178;28;20061;-85
2022/12/03 03:13:18;;;;;;;12.30;4.32;;;3.00;71.60;;;;;;4129887;28;20058;-86
2022/12/03 03:15:18;;;;;;;14.65;4.80;;;3.10;71.70;;;;;;4131962;28;20026;-84
2022/12/03 03:17:19;;;;;;;9.90;4.15;;;3.20;71.80;;;;;;4148621;28;20080;-85
2022/12/03 03:19:27;;;;;;;9.95;4.13;;;3.10;71.80;;;;;;4131097;28;20495;-85
2022/12/03 03:21:28;;;;;;;19.25;4.00;;;3.10;71.80;;;;;;4137932;28;20104;-86
2022/12/03 03:23:28;;;;;;;8.48;3.85;;;3.10;71.70;;;;;;4134813;28;20044;-85
2022/12/03 03:25:29;;;;;;;13.18;4.10;;;3.20;72.00;;;;;;4126593;28;20078;-85
2022/12/03 03:27:30;;;;;;;13.65;4.40;;;3.10;72.10;;;;;;4147159;28;20112;-84
2022/12/03 03:29:32;;;;;;;14.45;4.13;;;3.10;72.00;;;;;;4136447;28;20032;-85
2022/12/03 03:31:33;;;;;;;9.75;4.40;;;3.10;72.00;;;;;;4127584;28;20108;-87
2022/12/03 03:33:34;;;;;;;10.32;4.30;;;3.10;72.00;;;;;;4148688;28;20037;-85
2022/12/03 03:35:36;;;;;;;8.35;4.45;;;3.10;72.00;;;;;;4147158;28;20166;-86
2022/12/03 03:37:37;;;;;;;8.40;4.30;;;3.10;72.10;;;;;;4121510;28;20022;-86
2022/12/03 03:39:38;;;;;;;9.82;4.70;;;3.10;72.20;;;;;;4150294;28;20026;-87
2022/12/03 03:41:39;;;;;;;14.82;4.65;;;3.00;72.30;;;;;;4150319;28;20418;-86
2022/12/03 03:43:42;;;;;;;13.90;5.05;;;3.00;72.30;;;;;;4149634;28;20017;-86
2022/12/03 03:45:43;;;;;;;10.43;4.88;;;3.00;72.60;;;;;;4139429;28;20149;-85
2022/12/03 03:47:44;;;;;;;8.50;4.32;;;2.90;72.60;;;;;;4120214;28;20743;-86
2022/12/03 03:49:46;;;;;;;9.90;4.93;;;2.90;72.80;;;;;;4147767;28;20100;-85
2022/12/03 03:51:47;;;;;;;10.68;4.40;;;2.90;73.00;;;;;;4129490;28;20029;-85
2022/12/03 03:53:49;;;;;;;11.18;5.20;;;2.90;73.20;;;;;;4136754;28;20614;-84
2022/12/03 03:55:50;;;;;;;9.75;4.07;;;3.10;73.30;;;;;;4130889;28;20119;-85
2022/12/03 03:57:51;;;;;;;16.65;4.55;;;3.00;73.40;;;;;;4138623;28;20093;-85
2022/12/03 03:59:52;;;;;;;11.38;4.70;;;3.00;73.30;;;;;;4146238;28;20022;-88
2022/12/03 04:01:53;;;;;;;10.70;4.93;;;2.90;73.30;;;;;;4135325;28;20026;-88
2022/12/03 04:03:54;;;;;;;12.93;5.00;;;3.00;73.50;;;;;;4147830;28;21058;-87
2022/12/03 04:05:55;;;;;;;14.48;5.25;;;3.00;73.60;;;;;;4145739;28;20032;-87
2022/12/03 04:07:57;;;;;;;9.90;5.05;;;3.00;73.60;;;;;;4140722;28;20239;-87
2022/12/03 04:09:58;;;;;;;9.60;4.70;;;3.00;73.60;;;;;;4147557;28;20057;-89
2022/12/03 04:14:17;;;;;;;15.00;4.68;;;3.00;73.90;;;;;;4148436;28;20025;-85
2022/12/03 04:16:18;;;;;;;10.27;4.25;;;3.00;74.00;;;;;;4128640;28;20018;-86
2022/12/03 04:20:39;;;;;;;14.30;4.43;;;2.90;73.90;;;;;;4150832;28;20025;-86
2022/12/03 04:22:39;;;;;;;20.48;5.55;;;2.90;74.00;;;;;;4143348;28;20216;-85
2022/12/03 04:24:40;;;;;;;10.25;4.32;;;2.90;74.30;;;;;;4133458;28;20144;-85
2022/12/03 04:29:00;;;;;;;13.90;5.18;;;2.90;74.50;;;;;;4127342;28;20018;-87
2022/12/03 04:35:41;;;;;;;9.30;4.20;;;2.80;74.30;;;;;;4130706;28;20018;-86
2022/12/03 04:35:44;;;;;;;9.20;4.75;;;2.90;74.50;;;;;;4148890;28;20038;-87
2022/12/03 04:37:54;;;;;;;9.77;4.60;;;2.90;74.60;;;;;;4131432;28;20465;-86
2022/12/03 04:39:54;;;;;;;12.25;5.20;;;2.90;74.50;;;;;;4136297;28;20033;-86
2022/12/03 04:41:55;;;;;;;9.15;5.07;;;2.90;74.50;;;;;;4145751;28;20030;-86
2022/12/03 04:46:15;;;;;;;12.35;5.13;;;2.80;74.90;;;;;;4127033;28;20537;-85
2022/12/03 04:48:16;;;;;;;10.38;5.07;;;2.80;75.20;;;;;;4150187;28;20025;-85
2022/12/03 04:50:16;;;;;;;13.32;5.13;;;2.90;75.40;;;;;;4119199;28;20430;-85
2022/12/03 04:52:18;;;;;;;19.60;5.70;;;2.90;75.20;;;;;;4137337;28;20101;-86
2022/12/03 04:54:19;;;;;;;15.38;5.40;;;2.90;75.30;;;;;;4137477;28;20099;-85
2022/12/03 04:56:20;;;;;;;13.50;5.35;;;2.90;75.50;;;;;;4147378;28;20026;-86
2022/12/03 04:58:20;;;;;;;17.52;5.22;;;2.90;75.70;;;;;;4149100;28;20041;-86
2022/12/03 05:00:21;;;;;;;11.43;5.38;;;2.90;76.10;;;;;;4114972;28;20023;-86
2022/12/03 05:02:22;;;;;;;11.05;6.13;;;2.90;76.30;;;;;;4121441;28;20022;-85
2022/12/03 05:04:23;;;;;;;11.70;5.45;;;2.80;76.50;;;;;;4149383;28;20048;-84
2022/12/03 05:06:23;;;;;;;9.80;5.15;;;2.80;76.70;;;;;;4118401;28;20035;-86
2022/12/03 05:08:24;;;;;;;10.05;5.47;;;2.80;76.50;;;;;;4149821;28;20300;-86
2022/12/03 05:10:25;;;;;;;13.05;5.85;;;2.80;76.70;;;;;;4129265;28;20036;-85
2022/12/03 05:12:25;;;;;;;13.02;5.53;;;2.70;76.80;;;;;;4133711;28;20026;-86
2022/12/03 05:14:26;;;;;;;12.43;4.68;;;2.70;77.00;;;;;;4152136;28;20620;-86
2022/12/03 05:16:27;;;;;;;17.08;5.45;;;2.70;77.00;;;;;;4123859;28;20165;-86
2022/12/03 05:18:27;;;;;;;12.02;5.15;;;2.70;77.10;;;;;;4118487;28;20029;-86
2022/12/03 05:20:40;;;;;;;11.40;5.53;;;2.70;78.00;;;;;;4125135;28;20153;-86
2022/12/03 05:22:41;;;;;;;10.27;5.67;;;2.60;77.80;;;;;;4143429;28;20022;-87
2022/12/03 05:24:41;;;;;;;11.13;5.78;;;2.70;78.00;;;;;;4137694;28;20099;-86
2022/12/03 05:26:42;;;;;;;11.63;5.45;;;2.60;78.00;;;;;;4141305;28;20034;-86
2022/12/03 05:28:43;;;;;;;11.32;5.32;;;2.60;77.80;;;;;;4136832;28;20045;-86
2022/12/03 05:30:44;;;;;;;12.38;5.13;;;2.60;77.80;;;;;;4134464;28;20035;-85
2022/12/03 05:32:44;;;;;;;15.93;5.97;;;2.60;77.90;;;;;;4133831;28;20104;-83
2022/12/03 05:34:45;;;;;;;10.68;5.07;;;2.70;78.20;;;;;;4143433;28;20097;-84
2022/12/03 05:36:45;;;;;;;11.73;5.90;;;2.60;78.10;;;;;;4141700;28;20030;-85
2022/12/03 05:38:47;;;;;;;11.95;5.00;;;2.70;78.20;;;;;;4115838;28;20085;-85
2022/12/03 05:40:47;;;;;;;11.63;5.10;;;2.60;77.80;;;;;;4150443;28;20108;-86
2022/12/03 05:42:55;;;;;;;14.48;5.45;;;2.70;77.70;;;;;;4154148;28;20056;-86
2022/12/03 05:44:56;;;;;;;14.35;5.60;;;2.70;77.90;;;;;;4150528;28;20029;-86
2022/12/03 05:46:57;;;;;;;12.07;5.20;;;2.60;77.80;;;;;;4133767;28;20034;-85
2022/12/03 05:48:58;;;;;;;10.07;4.40;;;2.70;77.70;;;;;;4133883;28;20111;-86
2022/12/03 05:50:58;;;;;;;10.45;5.05;;;2.70;77.70;;;;;;4151844;28;20030;-85
2022/12/03 05:52:59;;;;;;;16.90;4.93;;;2.70;77.70;;;;;;4125839;28;20041;-86
2022/12/03 05:55:00;;;;;;;21.25;5.38;;;2.70;77.80;;;;;;4143158;28;20547;-86
2022/12/03 05:57:01;;;;;;;12.52;5.20;;;2.60;77.70;;;;;;4153623;28;20117;-86
2022/12/03 05:59:02;;;;;;;10.73;5.75;;;2.60;77.90;;;;;;4139414;28;20029;-86
2022/12/03 06:01:03;;;;;;;10.75;4.80;;;2.70;77.80;;;;;;4135286;28;20026;-86
2022/12/03 06:03:06;;;;;;;11.80;5.10;;;2.70;77.90;;;;;;4141165;28;20169;-83
2022/12/03 06:05:08;;;;;;;9.27;5.13;;;2.70;77.70;;;;;;4151270;28;20028;-85
2022/12/03 06:07:09;;;;;;;9.23;4.95;;;2.70;77.50;;;;;;4149404;28;20034;-86
2022/12/03 06:09:09;;;;;;;12.23;5.22;;;2.80;77.50;;;;;;4140766;28;20084;-84
2022/12/03 06:11:10;;;;;;;15.60;5.60;;;2.70;77.50;;;;;;4114338;28;20019;-86
2022/12/03 06:13:11;;;;;;;7.95;4.20;;;2.80;77.70;;;;;;4149882;28;20054;-84
2022/12/03 06:15:13;;;;;;;10.63;5.28;;;2.70;77.30;;;;;;4137060;28;20569;-86
2022/12/03 06:17:13;;;;;;;11.23;4.95;;;2.70;77.40;;;;;;4148508;28;20029;-86
2022/12/03 06:19:14;;;;;;;10.88;4.90;;;2.80;77.40;;;;;;4140962;28;20030;-86
2022/12/03 06:21:14;;;;;;;11.85;4.93;;;2.80;77.30;;;;;;4136371;28;20425;-85
2022/12/03 06:23:15;;;;;;;15.98;5.40;;;2.90;77.20;;;;;;4143756;28;20029;-86
2022/12/03 06:25:16;;;;;;;16.63;6.15;;;2.80;76.90;;;;;;4149637;28;20029;-87
2022/12/03 06:27:17;;;;;;;14.38;5.60;;;2.80;76.90;;;;;;4142059;28;20037;-85
2022/12/03 06:29:18;;;;;;;10.70;5.05;;;2.80;77.00;;;;;;4140345;28;20497;-86
2022/12/03 06:31:18;;;;;;;9.65;5.10;;;2.70;77.10;;;;;;4124544;28;20034;-86
2022/12/03 06:33:19;;;;;;;14.32;5.90;;;2.80;77.10;;;;;;4123013;28;20034;-86
2022/12/03 06:35:19;;;;;;;13.10;5.40;;;2.80;77.10;;;;;;4129255;28;20038;-85
2022/12/03 06:37:20;;;;;;;10.32;5.30;;;2.90;77.10;;;;;;4141362;28;20104;-86
2022/12/03 06:39:21;;;;;;;10.25;4.85;;;2.80;76.90;;;;;;4138387;28;20032;-86
2022/12/03 06:41:22;;;;;;;15.07;5.82;;;2.90;76.80;;;;;;4130185;28;20049;-86
2022/12/03 06:43:22;;;;;;;12.85;5.40;;;2.80;76.60;;;;;;4128315;28;20067;-86
2022/12/03 06:45:23;;;;;;;10.30;4.78;;;2.80;76.70;;;;;;4128353;28;20034;-87
2022/12/03 06:47:24;;;;;;;8.48;4.95;;;2.90;76.70;;;;;;4141403;28;20042;-86
2022/12/03 06:49:24;;;;;;;12.70;6.15;;;2.80;76.60;;;;;;4138330;28;20032;-86
2022/12/03 06:51:25;;;;;;;16.00;5.53;;;2.90;76.60;;;;;;4139186;28;20021;-86
2022/12/03 06:53:26;;;;;;;11.35;5.93;;;2.80;76.50;;;;;;4137576;28;20130;-87
2022/12/03 06:55:26;;;;;;;12.43;5.82;;;2.90;76.60;;;;;;4115742;28;20034;-84
2022/12/03 06:57:27;;;;;;;10.93;6.15;;;2.90;76.50;;;;;;4128314;28;20506;-86
2022/12/03 06:59:28;;;;;;;10.73;5.55;;;2.90;76.40;;;;;;4138235;28;20034;-87
2022/12/03 07:01:28;;;;;;;13.63;5.75;;;2.90;76.40;;;;;;4134253;28;20029;-85
2022/12/03 07:03:29;;;;;;;12.02;5.38;;;3.00;76.50;;;;;;4132279;28;20021;-86
2022/12/03 07:05:30;;;;;;;11.88;5.22;;;2.90;76.40;;;;;;4130639;28;20049;-86
2022/12/03 07:07:30;;;;;;;12.77;5.25;;;2.80;76.00;;;;;;4123451;28;20112;-87
2022/12/03 07:09:31;;;;;;;11.18;5.78;;;2.80;76.30;;;;;;4125814;28;20022;-86
2022/12/03 07:11:32;;;;;;;11.30;5.68;;;2.70;76.50;;;;;;4150350;28;20038;-87
2022/12/03 07:13:32;;;;;;;11.05;5.60;;;2.80;76.60;;;;;;4153972;28;20025;-88
2022/12/03 07:15:33;;;;;;;14.95;5.82;;;2.70;76.50;;;;;;4135416;28;20037;-87
2022/12/03 07:17:34;;;;;;;12.95;5.90;;;2.80;76.50;;;;;;4149743;28;20030;-87
2022/12/03 07:19:35;;;;;;;12.75;6.03;;;2.80;76.50;;;;;;4145661;28;20191;-87
2022/12/03 07:21:55;;;;;;;14.27;6.05;;;2.90;76.40;;;;;;4150654;28;20030;-87
2022/12/03 07:23:56;;;;;;;11.98;5.97;;;2.90;76.60;;;;;;4135035;28;20033;-88
2022/12/03 07:25:57;;;;;;;12.02;6.15;;;2.80;76.50;;;;;;4149251;28;20036;-87
2022/12/03 07:28:18;;;;;;;12.35;6.20;;;2.90;76.60;;;;;;4137804;28;20032;-86
2022/12/03 07:30:39;;;;;;;11.20;6.47;;;2.90;76.40;;;;;;4145426;28;20033;-86
2022/12/03 07:32:59;;;;;;;15.68;5.97;;;2.90;76.60;;;;;;4155138;28;20152;-86
2022/12/03 07:35:20;;;;;;;13.35;6.43;;;2.90;76.50;;;;;;4134383;28;20128;-87
2022/12/03 07:37:41;;;;;;;12.52;5.93;;;2.80;76.50;;;;;;4151343;28;20050;-86
2022/12/03 07:40:03;;;;;;;16.17;6.45;;;2.80;77.40;;;;;;4145962;28;20029;-86
2022/12/03 07:42:24;;;;;;;21.35;7.38;;;2.80;76.70;;;;;;4141166;28;20037;-86
2022/12/03 07:44:44;;;;;;;12.18;6.05;;;2.80;76.70;;;;;;4141424;28;20049;-86
2022/12/03 07:47:05;;;;;;;10.50;6.13;;;2.80;76.60;;;;;;4146928;28;20038;-86
2022/12/03 07:49:26;;;;;;;11.60;6.10;;;2.80;76.60;;;;;;4145653;28;20037;-86
2022/12/03 07:51:52;;;;;;;16.05;6.28;;;2.70;77.50;;;;;;4152187;28;20094;-88
2022/12/03 07:54:13;;;;;;;12.63;5.80;;;2.80;76.90;;;;;;4153618;28;20041;-88
2022/12/03 07:56:34;;;;;;;12.25;5.80;;;2.80;76.90;;;;;;4137322;28;20041;-87
2022/12/03 07:58:54;;;;;;;13.15;6.38;;;2.80;76.90;;;;;;4137680;28;20041;-87
2022/12/03 08:01:15;;;;;;;12.85;6.15;;;2.80;77.00;;;;;;4135330;28;20030;-87
2022/12/03 08:03:37;;;;;;;10.35;6.13;;;2.80;77.00;;;;;;4148980;28;20097;-86
2022/12/03 08:05:57;;;;;;;11.98;5.80;;;2.80;77.00;;;;;;4148924;28;20032;-87
2022/12/03 08:08:18;;;;;;;12.88;6.35;;;2.80;76.90;;;;;;4134083;28;20041;-85
2022/12/03 08:10:39;;;;;;;16.42;6.80;;;2.80;77.00;;;;;;4134882;28;20022;-86
2022/12/03 08:13:01;;;;;;;17.10;6.40;;;2.80;77.00;;;;;;4149842;28;20037;-86
2022/12/03 08:15:23;;;;;;;14.38;6.38;;;2.80;77.30;;;;;;4147376;28;20149;-86
2022/12/03 08:17:46;;;;;;;14.90;7.00;;;2.70;77.50;;;;;;4151795;28;20045;-86
2022/12/03 08:20:36;;;;;;;13.80;7.25;;;2.70;77.50;;;;;;4144455;28;20120;-86
2022/12/03 08:22:37;;;;;;;13.98;6.90;;;2.60;77.80;;;;;;4143971;28;20042;-86
2022/12/03 08:24:37;;;;;;;12.23;6.65;;;2.60;78.00;;;;;;4130415;28;20433;-86
2022/12/03 08:26:38;;;;;;;12.20;6.50;;;2.60;78.10;;;;;;4131562;28;20064;-85
2022/12/03 08:28:39;;;;;;;16.42;6.60;;;2.60;78.30;;;;;;4128825;28;20529;-86
2022/12/03 08:30:44;;;;;;;18.75;7.07;;;2.60;78.30;;;;;;4122406;28;21356;-86
2022/12/03 08:32:46;;;;;;;12.00;6.95;;;2.60;78.60;;;;;;4119115;28;20045;-86
2022/12/03 08:34:46;;;;;;;31.10;13.48;;;2.50;78.70;;;;;;4135140;28;20018;-86
2022/12/03 08:36:51;;;;;;;14.05;7.90;;;2.50;78.80;;;;;;4134112;28;20021;-86
2022/12/03 08:38:55;;;;;;;14.25;8.13;;;2.50;79.00;;;;;;4140069;28;20108;-85
2022/12/03 08:40:55;;;;;;;13.57;6.65;;;2.40;79.20;;;;;;4153466;28;20045;-86
2022/12/03 08:42:56;;;;;;;17.90;7.30;;;2.40;79.60;;;;;;4150083;28;20025;-86
2022/12/03 08:45:19;;;;;;;17.40;7.32;;;2.40;79.80;;;;;;4157094;28;20080;-86
2022/12/03 08:47:22;;;;;;;16.23;6.82;;;2.40;79.80;;;;;;4134333;28;20032;-86
2022/12/03 08:49:23;;;;;;;;;;;2.30;80.30;;;;;;4126307;28;20027;-85
2022/12/03 08:51:24;;;;;;;15.05;6.75;;;2.30;80.70;;;;;;4135125;28;19960;-85
2022/12/03 08:53:27;;;;;;;15.07;7.63;;;2.30;80.60;;;;;;4113835;28;21083;-86
2022/12/03 08:55:37;;;;;;;16.05;7.93;;;2.30;80.70;;;;;;4124636;28;20030;-85
2022/12/03 08:57:42;;;;;;;17.25;7.47;;;2.30;80.70;;;;;;4145250;28;20025;-85
2022/12/03 08:59:42;;;;;;;17.60;7.72;;;2.30;81.00;;;;;;4144039;28;20042;-86
2022/12/03 09:01:45;;;;;;;13.77;7.70;;;2.30;80.90;;;;;;4137364;28;20038;-85
2022/12/03 09:03:49;;;;;;;15.27;6.68;;;2.50;81.10;;;;;;4132009;28;20045;-86
2022/12/03 09:05:50;;;;;;;16.42;6.88;;;2.30;81.20;;;;;;4149649;28;20034;-86
2022/12/03 09:07:51;;;;;;;17.80;7.20;;;2.30;81.20;;;;;;4148965;28;20086;-86
2022/12/03 09:09:52;;;;;;;12.05;7.70;;;2.30;81.40;;;;;;4140044;28;20033;-86
2022/12/03 09:11:53;;;;;;;12.45;7.45;;;2.30;81.30;;;;;;4144157;28;21476;-86
2022/12/03 09:13:54;;;;;;;18.10;8.15;;;2.40;81.70;;;;;;4145264;28;20117;-85
2022/12/03 09:15:55;;;;;;;12.13;6.45;;;2.30;81.70;;;;;;4145098;28;20794;-84
2022/12/03 09:17:55;;;;;;;13.68;7.00;;;2.30;81.70;;;;;;4127453;28;20022;-86
2022/12/03 09:19:56;;;;;;;14.95;6.90;;;2.20;81.70;;;;;;4129810;28;20029;-85
2022/12/03 09:21:57;;;;;;;16.17;7.65;;;2.30;81.70;;;;;;4138081;28;20033;-84
2022/12/03 09:23:58;;;;;;;13.57;6.60;;;2.30;82.50;;;;;;4125205;28;20232;-84
2022/12/03 09:25:58;;;;;;;13.50;6.90;;;2.30;81.70;;;;;;4134546;28;20391;-84
2022/12/03 09:27:59;;;;;;;13.90;6.60;;;2.30;81.70;;;;;;4147640;28;20025;-85
2022/12/03 09:29:59;;;;;;;11.10;6.97;;;2.30;81.70;;;;;;4134347;28;20042;-84
2022/12/03 09:32:00;;;;;;;14.13;6.47;;;2.30;81.70;;;;;;4120928;28;20045;-84
2022/12/03 09:34:02;;;;;;;10.18;6.50;;;2.30;81.70;;;;;;4130313;28;20446;-91
2022/12/03 09:36:03;;;;;;;11.32;6.38;;;2.30;81.60;;;;;;4112210;28;20037;-84
2022/12/03 09:38:03;;;;;;;10.32;6.80;;;2.30;81.60;;;;;;4132825;28;20026;-84
2022/12/03 09:40:06;;;;;;;15.30;6.65;;;2.30;81.70;;;;;;4127674;28;20501;-84
2022/12/03 09:42:07;;;;;;;11.95;6.60;;;2.30;81.50;;;;;;4128261;28;20033;-84
2022/12/03 09:44:09;;;;;;;15.23;7.85;;;2.30;81.50;;;;;;4143925;28;20029;-84
2022/12/03 09:46:10;;;;;;;10.25;6.28;;;2.40;81.60;;;;;;4122221;28;20037;-85
2022/12/03 09:48:14;;;;;;;12.18;6.20;;;2.30;81.50;;;;;;4144986;28;20379;-85
2022/12/03 09:50:25;;;;;;;16.95;6.70;;;2.30;81.50;;;;;;4144972;28;20026;-84
2022/12/03 09:52:29;;;;;;;13.48;6.53;;;2.30;81.50;;;;;;4124486;28;20025;-84
2022/12/03 09:54:31;;;;;;;12.20;6.00;;;2.30;81.60;;;;;;4138558;28;20490;-84
2022/12/03 09:56:35;;;;;;;13.10;7.00;;;2.30;81.60;;;;;;4107876;28;20030;-84
2022/12/03 09:58:36;;;;;;;12.02;5.90;;;2.30;81.60;;;;;;4115827;28;20308;-85
2022/12/03 10:00:38;;;;;;;11.77;6.38;;;2.30;81.70;;;;;;4131749;28;20026;-84
2022/12/03 10:02:40;;;;;;;9.80;5.40;;;2.30;81.70;;;;;;4126962;28;20100;-85
2022/12/03 10:04:41;;;;;;;11.00;6.10;;;2.20;81.60;;;;;;4150855;28;20402;-84
2022/12/03 10:06:42;;;;;;;10.57;5.63;;;2.20;81.70;;;;;;4116960;28;20034;-84
2022/12/03 10:08:49;;;;;;;12.57;7.18;;;2.30;81.80;;;;;;4107778;28;20026;-85
2022/12/03 10:10:53;;;;;;;12.25;5.85;;;2.30;81.90;;;;;;4106754;28;20033;-87
2022/12/03 10:12:54;;;;;;;11.27;6.03;;;2.30;81.90;;;;;;4129686;28;20172;-84
2022/12/03 10:14:55;;;;;;;11.15;6.55;;;2.20;81.70;;;;;;4111818;28;20651;-85
2022/12/03 10:16:56;;;;;;;11.30;6.05;;;2.20;82.00;;;;;;4112781;28;20149;-85
2022/12/03 10:18:59;;;;;;;15.38;6.25;;;2.20;82.00;;;;;;4135986;28;20393;-85
2022/12/03 10:21:00;;;;;;;9.68;5.68;;;2.20;81.90;;;;;;4119768;28;20026;-85
2022/12/03 10:23:01;;;;;;;11.07;6.82;;;2.30;82.10;;;;;;4127286;28;20809;-86
2022/12/03 10:25:10;;;;;;;13.15;6.90;;;2.30;82.10;;;;;;4106822;28;20054;-86
2022/12/03 10:27:29;;;;;;;13.82;6.85;;;2.30;82.30;;;;;;4153506;28;20033;-85
2022/12/03 10:29:34;;;;;;;16.08;7.03;;;2.30;82.40;;;;;;4156038;28;20041;-85
2022/12/03 10:31:35;;;;;;;11.43;6.95;;;2.30;82.40;;;;;;4148213;28;20026;-85
2022/12/03 10:33:57;;;;;;;11.32;6.40;;;2.30;82.50;;;;;;4129628;28;20534;-85
2022/12/03 10:36:23;;;;;;;12.45;7.13;;;2.30;82.60;;;;;;4146014;28;20073;-84
2022/12/03 10:38:24;;;;;;;10.02;5.65;;;2.30;82.90;;;;;;4134465;28;20045;-85
2022/12/03 10:40:29;;;;;;;11.20;6.20;;;2.30;82.90;;;;;;4130749;28;20038;-83
2022/12/03 10:42:43;;;;;;;11.55;7.03;;;2.30;83.00;;;;;;4114446;28;20113;-85
2022/12/03 10:45:18;;;;;;;11.43;6.72;;;2.30;83.00;;;;;;4135002;28;21058;-84
2022/12/03 10:47:39;;;;;;;11.13;6.65;;;2.30;83.00;;;;;;4139019;28;20587;-84
2022/12/03 10:50:03;;;;;;;13.32;6.82;;;2.30;83.20;;;;;;4134835;28;20030;-84
2022/12/03 10:52:23;;;;;;;16.48;6.72;;;2.30;83.20;;;;;;4136408;28;20031;-84
2022/12/03 10:54:44;;;;;;;13.90;6.40;;;2.30;83.20;;;;;;4129896;28;20129;-84
2022/12/03 10:57:05;;;;;;;13.75;6.88;;;2.30;83.30;;;;;;4146164;28;20409;-85
2022/12/03 10:59:31;;;;;;;16.13;7.75;;;2.30;83.20;;;;;;4145630;28;20037;-84
2022/12/03 11:01:52;;;;;;;12.80;6.45;;;2.30;83.40;;;;;;4150475;28;21794;-84
2022/12/03 11:04:30;;;;;;;14.75;9.52;;;2.50;83.40;;;;;;4142632;28;20550;-84
2022/12/03 11:06:51;;;;;;;13.00;6.15;;;2.30;83.20;;;;;;4133771;28;20041;-84
2022/12/03 11:09:19;;;;;;;14.80;7.57;;;2.30;83.10;;;;;;4142438;28;20743;-84
2022/12/03 11:11:26;;;;;;;15.70;7.22;;;2.30;83.20;;;;;;4139710;28;20047;-84
2022/12/03 11:13:44;;;;;;;17.10;7.75;;;2.20;83.40;;;;;;4126453;28;20102;-84